sensor_id;sensor_type;location;lat;lon;timestamp;pressure;altitude;pressure_sealevel;temperature;humidity
8320;BME280;4197;42.130;24.746;2024-01-07T00:01:57;98286.47;;;4.88;100.00
8320;BME280;4197;42.130;24.746;2024-01-07T00:04:27;98268.38;;;5.01;100.00
8320;BME280;4197;42.130;24.746;2024-01-07T00:06:55;98277.97;;;4.86;100.00
8320;BME280;4197;42.130;24.746;2024-01-07T00:09:23;98237.41;;;5.07;100.00
8320;BME280;4197;42.130;24.746;2024-01-07T00:11:52;98225.47;;;5.04;100.00
8320;BME280;4197;42.130;24.746;2024-01-07T00:14:20;98207.19;;;5.10;100.00
8320;BME280;4197;42.130;24.746;2024-01-07T00:16:49;98171.00;;;5.23;100.00
8320;BME280;4197;42.130;24.746;2024-01-07T00:19:17;98168.50;;;5.30;100.00
8320;BME280;4197;42.130;24.746;2024-01-07T00:21:47;98185.97;;;5.40;100.00
8320;BME280;4197;42.130;24.746;2024-01-07T00:24:16;98199.38;;;5.21;100.00
8320;BME280;4197;42.130;24.746;2024-01-07T00:26:44;98194.78;;;5.21;100.00
8320;BME280;4197;42.130;24.746;2024-01-07T00:29:13;98193.91;;;5.17;100.00
8320;BME280;4197;42.130;24.746;2024-01-07T00:31:41;98188.81;;;5.12;100.00
8320;BME280;4197;42.130;24.746;2024-01-07T00:34:09;98190.53;;;5.20;100.00
8320;BME280;4197;42.130;24.746;2024-01-07T00:36:38;98176.50;;;5.27;100.00
8320;BME280;4197;42.130;24.746;2024-01-07T00:39:07;98173.00;;;5.26;100.00
8320;BME280;4197;42.130;24.746;2024-01-07T00:41:36;98164.34;;;5.33;100.00
8320;BME280;4197;42.130;24.746;2024-01-07T00:44:04;98162.59;;;5.41;100.00
8320;BME280;4197;42.130;24.746;2024-01-07T00:46:33;98175.88;;;5.33;100.00
8320;BME280;4197;42.130;24.746;2024-01-07T00:49:01;98173.16;;;5.33;100.00
8320;BME280;4197;42.130;24.746;2024-01-07T00:51:29;98153.91;;;5.31;100.00
8320;BME280;4197;42.130;24.746;2024-01-07T00:53:58;98144.13;;;5.23;100.00
8320;BME280;4197;42.130;24.746;2024-01-07T00:56:28;98134.97;;;5.24;100.00
8320;BME280;4197;42.130;24.746;2024-01-07T00:58:56;98138.66;;;5.35;100.00
8320;BME280;4197;42.130;24.746;2024-01-07T01:01:24;98134.69;;;5.29;100.00
8320;BME280;4197;42.130;24.746;2024-01-07T01:03:53;98133.50;;;5.27;100.00
8320;BME280;4197;42.130;24.746;2024-01-07T01:06:21;98120.03;;;5.27;100.00
8320;BME280;4197;42.130;24.746;2024-01-07T01:08:50;98104.63;;;5.24;100.00
8320;BME280;4197;42.130;24.746;2024-01-07T01:11:18;98064.16;;;5.17;100.00
8320;BME280;4197;42.130;24.746;2024-01-07T01:13:48;98023.19;;;5.23;100.00
8320;BME280;4197;42.130;24.746;2024-01-07T01:16:17;98010.97;;;5.26;100.00
8320;BME280;4197;42.130;24.746;2024-01-07T01:18:49;98021.38;;;5.27;100.00
8320;BME280;4197;42.130;24.746;2024-01-07T01:21:17;98032.84;;;5.24;100.00
8320;BME280;4197;42.130;24.746;2024-01-07T01:23:46;98025.06;;;5.19;100.00
8320;BME280;4197;42.130;24.746;2024-01-07T01:26:15;98031.34;;;5.27;100.00
8320;BME280;4197;42.130;24.746;2024-01-07T01:28:43;98020.28;;;5.32;100.00
8320;BME280;4197;42.130;24.746;2024-01-07T01:31:14;98026.38;;;5.29;100.00
8320;BME280;4197;42.130;24.746;2024-01-07T01:33:42;98016.13;;;5.34;100.00
8320;BME280;4197;42.130;24.746;2024-01-07T01:36:11;97991.38;;;5.45;100.00
8320;BME280;4197;42.130;24.746;2024-01-07T01:38:39;97979.63;;;5.33;100.00
8320;BME280;4197;42.130;24.746;2024-01-07T01:41:08;97966.63;;;5.35;100.00
8320;BME280;4197;42.130;24.746;2024-01-07T01:43:36;97955.22;;;5.42;100.00
8320;BME280;4197;42.130;24.746;2024-01-07T01:46:04;97963.84;;;5.51;100.00
8320;BME280;4197;42.130;24.746;2024-01-07T01:48:35;97940.97;;;5.61;100.00
8320;BME280;4197;42.130;24.746;2024-01-07T01:51:04;97931.66;;;5.55;100.00
8320;BME280;4197;42.130;24.746;2024-01-07T01:53:33;97931.75;;;5.62;100.00
8320;BME280;4197;42.130;24.746;2024-01-07T01:56:01;97920.19;;;5.58;100.00
8320;BME280;4197;42.130;24.746;2024-01-07T01:58:31;97928.34;;;5.65;100.00
8320;BME280;4197;42.130;24.746;2024-01-07T02:01:00;97930.75;;;5.70;100.00
8320;BME280;4197;42.130;24.746;2024-01-07T02:03:29;97929.03;;;5.81;100.00
8320;BME280;4197;42.130;24.746;2024-01-07T02:05:58;97920.66;;;5.87;100.00
8320;BME280;4197;42.130;24.746;2024-01-07T02:08:27;97894.06;;;5.81;100.00
8320;BME280;4197;42.130;24.746;2024-01-07T02:10:55;97887.13;;;5.57;100.00
8320;BME280;4197;42.130;24.746;2024-01-07T02:13:24;97892.34;;;5.47;100.00
8320;BME280;4197;42.130;24.746;2024-01-07T02:15:53;97890.91;;;5.53;100.00
8320;BME280;4197;42.130;24.746;2024-01-07T02:18:23;97888.97;;;5.53;100.00
8320;BME280;4197;42.130;24.746;2024-01-07T02:20:52;97881.81;;;5.61;100.00
8320;BME280;4197;42.130;24.746;2024-01-07T02:23:21;97875.66;;;5.61;100.00
8320;BME280;4197;42.130;24.746;2024-01-07T02:25:52;97880.00;;;5.46;100.00
8320;BME280;4197;42.130;24.746;2024-01-07T02:28:20;97875.44;;;5.46;100.00
8320;BME280;4197;42.130;24.746;2024-01-07T02:30:48;97878.47;;;5.45;100.00
8320;BME280;4197;42.130;24.746;2024-01-07T02:33:17;97859.22;;;5.43;100.00
8320;BME280;4197;42.130;24.746;2024-01-07T02:35:45;97844.56;;;5.40;100.00
8320;BME280;4197;42.130;24.746;2024-01-07T02:38:14;97826.19;;;5.42;100.00
8320;BME280;4197;42.130;24.746;2024-01-07T02:40:42;97812.63;;;5.58;100.00
8320;BME280;4197;42.130;24.746;2024-01-07T02:43:12;97796.34;;;5.74;100.00
8320;BME280;4197;42.130;24.746;2024-01-07T02:45:40;97799.13;;;5.81;100.00
8320;BME280;4197;42.130;24.746;2024-01-07T02:48:08;97798.00;;;5.82;100.00
8320;BME280;4197;42.130;24.746;2024-01-07T02:50:37;97809.25;;;5.88;100.00
8320;BME280;4197;42.130;24.746;2024-01-07T02:53:05;97797.47;;;5.96;100.00
8320;BME280;4197;42.130;24.746;2024-01-07T02:55:35;97803.09;;;6.14;100.00
8320;BME280;4197;42.130;24.746;2024-01-07T02:58:03;97812.31;;;6.13;100.00
8320;BME280;4197;42.130;24.746;2024-01-07T03:00:33;97818.91;;;6.19;100.00
8320;BME280;4197;42.130;24.746;2024-01-07T03:03:01;97811.25;;;6.21;100.00
8320;BME280;4197;42.130;24.746;2024-01-07T03:05:30;97825.03;;;6.16;100.00
8320;BME280;4197;42.130;24.746;2024-01-07T03:07:59;97834.69;;;6.20;100.00
8320;BME280;4197;42.130;24.746;2024-01-07T03:10:28;97832.16;;;6.31;100.00
8320;BME280;4197;42.130;24.746;2024-01-07T03:12:56;97834.09;;;6.34;100.00
8320;BME280;4197;42.130;24.746;2024-01-07T03:15:24;97838.50;;;6.46;100.00
8320;BME280;4197;42.130;24.746;2024-01-07T03:17:56;97828.53;;;6.50;100.00
8320;BME280;4197;42.130;24.746;2024-01-07T03:20:27;97834.03;;;6.57;100.00
8320;BME280;4197;42.130;24.746;2024-01-07T03:22:55;97831.50;;;6.72;100.00
8320;BME280;4197;42.130;24.746;2024-01-07T03:25:24;97829.66;;;6.79;100.00
8320;BME280;4197;42.130;24.746;2024-01-07T03:27:53;97803.34;;;7.47;100.00
8320;BME280;4197;42.130;24.746;2024-01-07T03:30:21;97798.13;;;7.69;100.00
8320;BME280;4197;42.130;24.746;2024-01-07T03:32:50;97808.19;;;7.75;100.00
8320;BME280;4197;42.130;24.746;2024-01-07T03:35:20;97817.44;;;7.71;100.00
8320;BME280;4197;42.130;24.746;2024-01-07T03:37:51;97807.06;;;7.76;100.00
8320;BME280;4197;42.130;24.746;2024-01-07T03:40:19;97811.31;;;7.81;100.00
8320;BME280;4197;42.130;24.746;2024-01-07T03:42:47;97810.13;;;7.75;100.00
8320;BME280;4197;42.130;24.746;2024-01-07T03:45:16;97807.44;;;7.78;100.00
8320;BME280;4197;42.130;24.746;2024-01-07T03:47:44;97803.50;;;7.65;100.00
8320;BME280;4197;42.130;24.746;2024-01-07T03:50:13;97798.81;;;7.55;100.00
8320;BME280;4197;42.130;24.746;2024-01-07T03:52:42;97769.97;;;7.63;100.00
8320;BME280;4197;42.130;24.746;2024-01-07T03:55:11;97779.03;;;7.95;100.00
8320;BME280;4197;42.130;24.746;2024-01-07T03:57:39;97787.88;;;7.92;100.00
8320;BME280;4197;42.130;24.746;2024-01-07T04:00:09;97797.13;;;7.95;100.00
8320;BME280;4197;42.130;24.746;2024-01-07T04:02:37;97793.25;;;7.92;100.00
8320;BME280;4197;42.130;24.746;2024-01-07T04:05:06;97790.19;;;7.90;100.00
8320;BME280;4197;42.130;24.746;2024-01-07T04:07:36;97760.84;;;7.85;100.00
8320;BME280;4197;42.130;24.746;2024-01-07T04:10:06;97751.09;;;7.70;100.00
8320;BME280;4197;42.130;24.746;2024-01-07T04:12:35;97744.25;;;7.79;100.00
8320;BME280;4197;42.130;24.746;2024-01-07T04:15:05;97738.78;;;7.72;100.00
8320;BME280;4197;42.130;24.746;2024-01-07T04:17:34;97718.31;;;7.60;100.00
8320;BME280;4197;42.130;24.746;2024-01-07T04:20:03;97710.22;;;7.64;100.00
8320;BME280;4197;42.130;24.746;2024-01-07T04:22:32;97728.22;;;7.46;100.00
8320;BME280;4197;42.130;24.746;2024-01-07T04:25:00;97755.63;;;7.51;100.00
8320;BME280;4197;42.130;24.746;2024-01-07T04:27:30;97749.50;;;7.62;100.00
8320;BME280;4197;42.130;24.746;2024-01-07T04:29:58;97746.84;;;7.65;100.00
8320;BME280;4197;42.130;24.746;2024-01-07T04:32:27;97749.16;;;7.63;100.00
8320;BME280;4197;42.130;24.746;2024-01-07T04:34:55;97740.97;;;7.49;100.00
8320;BME280;4197;42.130;24.746;2024-01-07T04:37:24;97760.22;;;7.47;100.00
8320;BME280;4197;42.130;24.746;2024-01-07T04:39:53;97765.59;;;7.47;100.00
8320;BME280;4197;42.130;24.746;2024-01-07T04:42:21;97770.97;;;7.44;100.00
8320;BME280;4197;42.130;24.746;2024-01-07T04:44:51;97778.97;;;7.33;100.00
8320;BME280;4197;42.130;24.746;2024-01-07T04:47:27;97778.66;;;7.42;100.00
8320;BME280;4197;42.130;24.746;2024-01-07T04:49:56;97771.84;;;7.58;100.00
8320;BME280;4197;42.130;24.746;2024-01-07T04:52:25;97753.59;;;7.37;100.00
8320;BME280;4197;42.130;24.746;2024-01-07T04:54:54;97741.56;;;7.28;100.00
8320;BME280;4197;42.130;24.746;2024-01-07T04:57:23;97723.03;;;7.23;100.00
8320;BME280;4197;42.130;24.746;2024-01-07T04:59:53;97722.25;;;7.19;100.00
8320;BME280;4197;42.130;24.746;2024-01-07T05:02:21;97724.19;;;7.22;100.00
8320;BME280;4197;42.130;24.746;2024-01-07T05:04:50;97729.59;;;7.25;100.00
8320;BME280;4197;42.130;24.746;2024-01-07T05:07:18;97738.47;;;7.26;100.00
8320;BME280;4197;42.130;24.746;2024-01-07T05:09:47;97743.13;;;7.29;100.00
8320;BME280;4197;42.130;24.746;2024-01-07T05:12:15;97741.22;;;7.29;100.00
8320;BME280;4197;42.130;24.746;2024-01-07T05:14:43;97743.84;;;7.26;100.00
8320;BME280;4197;42.130;24.746;2024-01-07T05:17:14;97731.16;;;7.26;100.00
8320;BME280;4197;42.130;24.746;2024-01-07T05:19:43;97728.44;;;7.23;100.00
8320;BME280;4197;42.130;24.746;2024-01-07T05:22:11;97719.13;;;7.17;100.00
8320;BME280;4197;42.130;24.746;2024-01-07T05:24:40;97731.84;;;7.12;100.00
8320;BME280;4197;42.130;24.746;2024-01-07T05:27:09;97742.25;;;7.18;100.00
8320;BME280;4197;42.130;24.746;2024-01-07T05:29:37;97747.63;;;7.14;100.00
8320;BME280;4197;42.130;24.746;2024-01-07T05:32:06;97752.22;;;7.10;100.00
8320;BME280;4197;42.130;24.746;2024-01-07T05:34:36;97736.41;;;7.08;100.00
8320;BME280;4197;42.130;24.746;2024-01-07T05:37:05;97714.44;;;7.06;100.00
8320;BME280;4197;42.130;24.746;2024-01-07T05:39:34;97714.59;;;7.24;100.00
8320;BME280;4197;42.130;24.746;2024-01-07T05:42:03;97720.75;;;7.25;100.00
8320;BME280;4197;42.130;24.746;2024-01-07T05:44:31;97716.84;;;7.15;100.00
8320;BME280;4197;42.130;24.746;2024-01-07T05:46:59;97717.94;;;7.10;100.00
8320;BME280;4197;42.130;24.746;2024-01-07T05:49:28;97723.66;;;7.02;100.00
8320;BME280;4197;42.130;24.746;2024-01-07T05:51:58;97727.03;;;6.95;100.00
8320;BME280;4197;42.130;24.746;2024-01-07T05:54:26;97739.50;;;7.10;100.00
8320;BME280;4197;42.130;24.746;2024-01-07T05:56:58;97755.00;;;7.21;100.00
8320;BME280;4197;42.130;24.746;2024-01-07T05:59:26;97757.72;;;7.24;100.00
8320;BME280;4197;42.130;24.746;2024-01-07T06:01:58;97743.06;;;7.22;100.00
8320;BME280;4197;42.130;24.746;2024-01-07T06:04:26;97743.84;;;7.22;100.00
8320;BME280;4197;42.130;24.746;2024-01-07T06:06:55;97747.72;;;7.25;100.00
8320;BME280;4197;42.130;24.746;2024-01-07T06:09:25;97721.94;;;7.31;100.00
8320;BME280;4197;42.130;24.746;2024-01-07T06:11:55;97703.13;;;7.38;100.00
8320;BME280;4197;42.130;24.746;2024-01-07T06:14:23;97687.72;;;7.38;100.00
8320;BME280;4197;42.130;24.746;2024-01-07T06:16:53;97693.13;;;7.38;100.00
8320;BME280;4197;42.130;24.746;2024-01-07T06:19:22;97726.66;;;7.45;100.00
8320;BME280;4197;42.130;24.746;2024-01-07T06:21:50;97751.31;;;7.43;100.00
8320;BME280;4197;42.130;24.746;2024-01-07T06:24:19;97749.00;;;7.42;100.00
8320;BME280;4197;42.130;24.746;2024-01-07T06:26:48;97746.31;;;7.45;100.00
8320;BME280;4197;42.130;24.746;2024-01-07T06:29:17;97735.94;;;7.51;100.00
8320;BME280;4197;42.130;24.746;2024-01-07T06:31:45;97731.69;;;7.46;100.00
8320;BME280;4197;42.130;24.746;2024-01-07T06:34:15;97741.66;;;7.38;100.00
8320;BME280;4197;42.130;24.746;2024-01-07T06:36:44;97730.84;;;7.35;100.00
8320;BME280;4197;42.130;24.746;2024-01-07T06:39:12;97715.47;;;7.43;100.00
8320;BME280;4197;42.130;24.746;2024-01-07T06:41:41;97707.03;;;7.44;100.00
8320;BME280;4197;42.130;24.746;2024-01-07T06:44:10;97702.44;;;7.52;100.00
8320;BME280;4197;42.130;24.746;2024-01-07T06:46:39;97699.75;;;7.52;100.00
8320;BME280;4197;42.130;24.746;2024-01-07T06:49:07;97701.34;;;7.60;100.00
8320;BME280;4197;42.130;24.746;2024-01-07T06:51:37;97717.91;;;7.58;100.00
8320;BME280;4197;42.130;24.746;2024-01-07T06:54:05;97713.31;;;7.63;100.00
8320;BME280;4197;42.130;24.746;2024-01-07T06:56:36;97725.63;;;7.64;100.00
8320;BME280;4197;42.130;24.746;2024-01-07T06:59:04;97737.25;;;7.71;100.00
8320;BME280;4197;42.130;24.746;2024-01-07T07:01:35;97753.44;;;7.71;100.00
8320;BME280;4197;42.130;24.746;2024-01-07T07:04:03;97766.53;;;7.69;100.00
8320;BME280;4197;42.130;24.746;2024-01-07T07:06:32;97764.25;;;7.71;100.00
8320;BME280;4197;42.130;24.746;2024-01-07T07:09:01;97770.31;;;7.61;100.00
8320;BME280;4197;42.130;24.746;2024-01-07T07:11:29;97757.22;;;7.59;100.00
8320;BME280;4197;42.130;24.746;2024-01-07T07:13:58;97745.38;;;7.75;100.00
8320;BME280;4197;42.130;24.746;2024-01-07T07:16:26;97748.81;;;7.72;100.00
8320;BME280;4197;42.130;24.746;2024-01-07T07:18:56;97751.06;;;7.63;100.00
8320;BME280;4197;42.130;24.746;2024-01-07T07:21:24;97745.63;;;7.55;100.00
8320;BME280;4197;42.130;24.746;2024-01-07T07:23:54;97744.09;;;7.58;100.00
8320;BME280;4197;42.130;24.746;2024-01-07T07:26:22;97761.81;;;7.59;100.00
8320;BME280;4197;42.130;24.746;2024-01-07T07:28:51;97751.16;;;7.73;100.00
8320;BME280;4197;42.130;24.746;2024-01-07T07:31:20;97748.88;;;7.79;100.00
8320;BME280;4197;42.130;24.746;2024-01-07T07:33:48;97738.91;;;7.90;100.00
8320;BME280;4197;42.130;24.746;2024-01-07T07:36:18;97756.63;;;7.91;100.00
8320;BME280;4197;42.130;24.746;2024-01-07T07:38:47;97753.16;;;7.87;100.00
8320;BME280;4197;42.130;24.746;2024-01-07T07:41:15;97758.97;;;7.93;100.00
8320;BME280;4197;42.130;24.746;2024-01-07T07:43:43;97755.53;;;7.99;100.00
8320;BME280;4197;42.130;24.746;2024-01-07T07:46:12;97762.09;;;8.02;100.00
8320;BME280;4197;42.130;24.746;2024-01-07T07:48:40;97769.50;;;8.12;100.00
8320;BME280;4197;42.130;24.746;2024-01-07T07:51:08;97768.34;;;8.17;100.00
8320;BME280;4197;42.130;24.746;2024-01-07T07:53:39;97762.59;;;8.22;100.00
8320;BME280;4197;42.130;24.746;2024-01-07T07:56:09;97763.41;;;8.30;100.00
8320;BME280;4197;42.130;24.746;2024-01-07T07:58:37;97743.38;;;8.34;100.00
8320;BME280;4197;42.130;24.746;2024-01-07T08:01:06;97750.78;;;8.48;100.00
8320;BME280;4197;42.130;24.746;2024-01-07T08:03:35;97751.97;;;8.65;100.00
8320;BME280;4197;42.130;24.746;2024-01-07T08:06:04;97748.53;;;8.79;100.00
8320;BME280;4197;42.130;24.746;2024-01-07T08:08:39;97751.25;;;8.82;100.00
8320;BME280;4197;42.130;24.746;2024-01-07T08:11:07;97759.34;;;8.82;100.00
8320;BME280;4197;42.130;24.746;2024-01-07T08:13:37;97759.75;;;8.84;100.00
8320;BME280;4197;42.130;24.746;2024-01-07T08:16:06;97748.16;;;9.09;100.00
8320;BME280;4197;42.130;24.746;2024-01-07T08:18:34;97757.81;;;9.03;100.00
8320;BME280;4197;42.130;24.746;2024-01-07T08:21:03;97747.75;;;8.89;100.00
8320;BME280;4197;42.130;24.746;2024-01-07T08:23:31;97740.81;;;8.91;100.00
8320;BME280;4197;42.130;24.746;2024-01-07T08:26:02;97748.13;;;8.84;100.00
8320;BME280;4197;42.130;24.746;2024-01-07T08:28:30;97762.03;;;8.89;100.00
8320;BME280;4197;42.130;24.746;2024-01-07T08:30:58;97761.69;;;9.02;100.00
8320;BME280;4197;42.130;24.746;2024-01-07T08:33:27;97767.09;;;9.09;100.00
8320;BME280;4197;42.130;24.746;2024-01-07T08:35:58;97771.75;;;9.05;100.00
8320;BME280;4197;42.130;24.746;2024-01-07T08:38:27;97770.94;;;8.93;100.00
8320;BME280;4197;42.130;24.746;2024-01-07T08:40:55;97761.69;;;9.02;100.00
8320;BME280;4197;42.130;24.746;2024-01-07T08:43:25;97760.94;;;9.05;100.00
8320;BME280;4197;42.130;24.746;2024-01-07T08:45:53;97754.75;;;9.11;100.00
8320;BME280;4197;42.130;24.746;2024-01-07T08:48:21;97761.72;;;9.23;100.00
8320;BME280;4197;42.130;24.746;2024-01-07T08:50:50;97760.16;;;9.47;100.00
8320;BME280;4197;42.130;24.746;2024-01-07T08:53:18;97763.25;;;9.71;100.00
8320;BME280;4197;42.130;24.746;2024-01-07T08:55:47;97757.06;;;9.59;100.00
8320;BME280;4197;42.130;24.746;2024-01-07T08:58:16;97755.91;;;9.57;100.00
8320;BME280;4197;42.130;24.746;2024-01-07T09:00:46;97755.53;;;9.51;100.00
8320;BME280;4197;42.130;24.746;2024-01-07T09:03:14;97755.16;;;9.67;100.00
8320;BME280;4197;42.130;24.746;2024-01-07T09:05:42;97767.47;;;9.75;100.00
8320;BME280;4197;42.130;24.746;2024-01-07T09:08:11;97750.84;;;9.88;100.00
8320;BME280;4197;42.130;24.746;2024-01-07T09:10:41;97751.22;;;9.93;100.00
8320;BME280;4197;42.130;24.746;2024-01-07T09:13:10;97745.78;;;9.97;100.00
8320;BME280;4197;42.130;24.746;2024-01-07T09:15:38;97746.53;;;10.04;100.00
8320;BME280;4197;42.130;24.746;2024-01-07T09:18:08;97748.50;;;10.00;100.00
8320;BME280;4197;42.130;24.746;2024-01-07T09:20:45;97736.91;;;9.93;100.00
8320;BME280;4197;42.130;24.746;2024-01-07T09:23:13;97730.69;;;10.03;100.00
8320;BME280;4197;42.130;24.746;2024-01-07T09:25:42;97727.22;;;9.99;100.00
8320;BME280;4197;42.130;24.746;2024-01-07T09:28:10;97725.72;;;9.87;100.00
8320;BME280;4197;42.130;24.746;2024-01-07T09:30:40;97722.94;;;10.05;100.00
8320;BME280;4197;42.130;24.746;2024-01-07T09:33:09;97728.75;;;10.07;100.00
8320;BME280;4197;42.130;24.746;2024-01-07T09:35:38;97732.19;;;10.11;100.00
8320;BME280;4197;42.130;24.746;2024-01-07T09:38:06;97733.34;;;10.17;100.00
8320;BME280;4197;42.130;24.746;2024-01-07T09:40:38;97723.66;;;10.27;100.00
8320;BME280;4197;42.130;24.746;2024-01-07T09:43:07;97711.19;;;10.44;100.00
8320;BME280;4197;42.130;24.746;2024-01-07T09:45:36;97713.81;;;10.58;100.00
8320;BME280;4197;42.130;24.746;2024-01-07T09:48:06;97719.63;;;10.60;100.00
8320;BME280;4197;42.130;24.746;2024-01-07T09:50:36;97712.25;;;10.68;100.00
8320;BME280;4197;42.130;24.746;2024-01-07T09:53:07;97720.34;;;10.71;100.00
8320;BME280;4197;42.130;24.746;2024-01-07T09:55:40;97712.53;;;10.81;100.00
8320;BME280;4197;42.130;24.746;2024-01-07T09:58:12;97710.53;;;10.88;100.00
8320;BME280;4197;42.130;24.746;2024-01-07T10:00:40;97705.50;;;10.90;100.00
8320;BME280;4197;42.130;24.746;2024-01-07T10:03:09;97700.47;;;10.92;100.00
8320;BME280;4197;42.130;24.746;2024-01-07T10:05:39;97703.25;;;10.82;100.00
8320;BME280;4197;42.130;24.746;2024-01-07T10:08:07;97680.78;;;10.78;100.00
8320;BME280;4197;42.130;24.746;2024-01-07T10:10:36;97668.50;;;10.62;100.00
8320;BME280;4197;42.130;24.746;2024-01-07T10:13:05;97670.81;;;10.67;100.00
8320;BME280;4197;42.130;24.746;2024-01-07T10:15:36;97666.81;;;10.86;100.00
8320;BME280;4197;42.130;24.746;2024-01-07T10:18:06;97667.47;;;11.01;100.00
8320;BME280;4197;42.130;24.746;2024-01-07T10:20:34;97665.13;;;11.03;100.00
8320;BME280;4197;42.130;24.746;2024-01-07T10:23:07;97668.19;;;11.05;100.00
8320;BME280;4197;42.130;24.746;2024-01-07T10:25:36;97659.63;;;11.10;100.00
8320;BME280;4197;42.130;24.746;2024-01-07T10:28:04;97660.78;;;11.13;100.00
8320;BME280;4197;42.130;24.746;2024-01-07T10:30:33;97657.25;;;11.20;100.00
8320;BME280;4197;42.130;24.746;2024-01-07T10:33:02;97642.44;;;11.24;100.00
8320;BME280;4197;42.130;24.746;2024-01-07T10:35:34;97649.78;;;11.31;100.00
8320;BME280;4197;42.130;24.746;2024-01-07T10:38:03;97642.72;;;11.37;100.00
8320;BME280;4197;42.130;24.746;2024-01-07T10:40:33;97629.97;;;11.34;100.00
8320;BME280;4197;42.130;24.746;2024-01-07T10:43:02;97624.69;;;11.20;100.00
8320;BME280;4197;42.130;24.746;2024-01-07T10:45:31;97619.88;;;11.34;100.00
8320;BME280;4197;42.130;24.746;2024-01-07T10:48:04;97622.44;;;11.49;100.00
8320;BME280;4197;42.130;24.746;2024-01-07T10:50:34;97610.25;;;11.64;100.00
8320;BME280;4197;42.130;24.746;2024-01-07T10:53:04;97610.44;;;11.80;100.00
8320;BME280;4197;42.130;24.746;2024-01-07T10:55:37;97620.25;;;12.05;100.00
8320;BME280;4197;42.130;24.746;2024-01-07T10:58:08;97616.50;;;12.26;100.00
8320;BME280;4197;42.130;24.746;2024-01-07T11:00:38;97611.91;;;12.46;100.00
8320;BME280;4197;42.130;24.746;2024-01-07T11:03:11;97609.16;;;12.50;100.00
8320;BME280;4197;42.130;24.746;2024-01-07T11:05:49;97612.53;;;12.58;100.00
8320;BME280;4197;42.130;24.746;2024-01-07T11:08:23;97615.81;;;12.72;100.00
8320;BME280;4197;42.130;24.746;2024-01-07T11:10:58;97611.38;;;12.82;100.00
8320;BME280;4197;42.130;24.746;2024-01-07T11:13:34;97620.13;;;12.93;100.00
8320;BME280;4197;42.130;24.746;2024-01-07T11:16:05;97620.38;;;13.03;100.00
8320;BME280;4197;42.130;24.746;2024-01-07T11:18:38;97612.84;;;13.10;100.00
8320;BME280;4197;42.130;24.746;2024-01-07T11:21:07;97603.75;;;13.21;100.00
8320;BME280;4197;42.130;24.746;2024-01-07T11:23:36;97614.09;;;13.29;100.00
8320;BME280;4197;42.130;24.746;2024-01-07T11:26:12;97615.16;;;13.35;100.00
8320;BME280;4197;42.130;24.746;2024-01-07T11:28:43;97605.69;;;13.44;100.00
8320;BME280;4197;42.130;24.746;2024-01-07T11:31:11;97605.75;;;13.60;100.00
8320;BME280;4197;42.130;24.746;2024-01-07T11:33:42;97601.72;;;13.68;100.00
8320;BME280;4197;42.130;24.746;2024-01-07T11:36:11;97591.44;;;13.76;100.00
8320;BME280;4197;42.130;24.746;2024-01-07T11:38:44;97597.31;;;13.94;100.00
8320;BME280;4197;42.130;24.746;2024-01-07T11:41:18;97599.56;;;14.16;100.00
8320;BME280;4197;42.130;24.746;2024-01-07T11:43:55;97602.38;;;14.12;100.00
8320;BME280;4197;42.130;24.746;2024-01-07T11:46:32;97605.66;;;14.03;100.00
8320;BME280;4197;42.130;24.746;2024-01-07T11:49:01;97594.69;;;14.07;100.00
8320;BME280;4197;42.130;24.746;2024-01-07T11:51:31;97593.25;;;14.02;100.00
8320;BME280;4197;42.130;24.746;2024-01-07T11:54:01;97605.66;;;14.03;100.00
8320;BME280;4197;42.130;24.746;2024-01-07T11:56:31;97600.03;;;13.94;100.00
8320;BME280;4197;42.130;24.746;2024-01-07T11:59:00;97595.56;;;13.84;100.00
8320;BME280;4197;42.130;24.746;2024-01-07T12:01:28;97602.22;;;13.83;100.00
8320;BME280;4197;42.130;24.746;2024-01-07T12:03:56;97590.66;;;13.95;100.00
8320;BME280;4197;42.130;24.746;2024-01-07T12:06:25;97592.47;;;14.02;100.00
8320;BME280;4197;42.130;24.746;2024-01-07T12:08:53;97578.84;;;14.02;100.00
8320;BME280;4197;42.130;24.746;2024-01-07T12:11:22;97582.25;;;14.06;100.00
8320;BME280;4197;42.130;24.746;2024-01-07T12:13:52;97585.16;;;14.15;100.00
8320;BME280;4197;42.130;24.746;2024-01-07T12:16:22;97587.53;;;14.13;100.00
8320;BME280;4197;42.130;24.746;2024-01-07T12:18:50;97592.59;;;14.15;100.00
8320;BME280;4197;42.130;24.746;2024-01-07T12:21:20;97583.56;;;14.18;100.00
8320;BME280;4197;42.130;24.746;2024-01-07T12:23:49;97575.47;;;14.14;100.00
8320;BME280;4197;42.130;24.746;2024-01-07T12:26:19;97587.13;;;14.15;100.00
8320;BME280;4197;42.130;24.746;2024-01-07T12:28:53;97585.94;;;14.16;100.00
8320;BME280;4197;42.130;24.746;2024-01-07T12:31:24;97578.38;;;14.23;100.00
8320;BME280;4197;42.130;24.746;2024-01-07T12:33:52;97576.50;;;14.20;100.00
8320;BME280;4197;42.130;24.746;2024-01-07T12:36:21;97586.66;;;14.36;100.00
8320;BME280;4197;42.130;24.746;2024-01-07T12:38:51;97584.78;;;14.33;100.00
8320;BME280;4197;42.130;24.746;2024-01-07T12:41:21;97590.81;;;14.24;100.00
8320;BME280;4197;42.130;24.746;2024-01-07T12:43:50;97587.91;;;14.15;100.00
8320;BME280;4197;42.130;24.746;2024-01-07T12:46:21;97579.94;;;14.04;100.00
8320;BME280;4197;42.130;24.746;2024-01-07T12:48:49;97577.84;;;14.12;100.00
8320;BME280;4197;42.130;24.746;2024-01-07T12:51:18;97576.75;;;14.26;100.00
8320;BME280;4197;42.130;24.746;2024-01-07T12:53:50;97572.41;;;14.28;100.00
8320;BME280;4197;42.130;24.746;2024-01-07T12:56:18;97573.28;;;14.25;100.00
8320;BME280;4197;42.130;24.746;2024-01-07T12:58:47;97568.47;;;14.13;100.00
8320;BME280;4197;42.130;24.746;2024-01-07T13:01:15;97584.13;;;14.09;100.00
8320;BME280;4197;42.130;24.746;2024-01-07T13:03:45;97580.56;;;14.12;100.00
8320;BME280;4197;42.130;24.746;2024-01-07T13:06:16;97585.94;;;14.16;100.00
8320;BME280;4197;42.130;24.746;2024-01-07T13:08:45;97573.09;;;14.16;100.00
8320;BME280;4197;42.130;24.746;2024-01-07T13:11:13;97587.50;;;14.33;100.00
8320;BME280;4197;42.130;24.746;2024-01-07T13:13:43;97584.84;;;14.29;100.00
8320;BME280;4197;42.130;24.746;2024-01-07T13:16:12;97577.44;;;14.14;100.00
8320;BME280;4197;42.130;24.746;2024-01-07T13:18:40;97584.84;;;13.93;100.00